ACT        NSW        VIC        QLD        SA        WA        TAS        NT        INFO        CALC            by VK5ZD

Past Date/Time: (dd/mm/yyyy hh:mm or blank for current data)    

  Atmospheric Gas Attenuation - ITU Rec 676-11   --------------- dB/100km ---------------
WA Stations Date Time Temp RH % AH g/m3 Dew Point Wind Direction Speed kph Gust kph Barometer mB Rainfall Since 9am 24GHz 47GHz 76GHz 122GHz 134GHz 241GHz
Albany 04/05 09:00 14.3 97 11.92 13.8 2 1013.1 1 26.7 31.4 53.6 141.3 144.0 497.7
Albany Airport 04/05 11:50 17 72 10.42 11.9 6 7 1028.5 0 23.3 28.5 46.2 121.3 119.7 413.1
Badgingarra 04/05 11:50 19.9 46 7.9 7.9 17 19 1013.1 0 17.8 23.2 34.3 89.9 82.6 284.0
Barimunya 04/05 11:50 21.8 22 4.22 -0.8 13 17 1013.1 0 10.1 17.8 21.5 55.7 41.0 137.9
Barrow Island 04/05 11:50 27.7 39 10.43 12.5 37 39 1016.3 0 22.7 24.9 39.9 105.0 103.5 358.2
Bedout Island 04/05 11:50 28.1 41 11.21 13.6 37 43 1015.9 0 24.3 25.9 42.5 111.9 112.2 388.4
Beverley 04/05 09:00 11.4 100 10.27 11.4 0 1013.1 0 23.3 29.5 48.2 126.8 125.0 431.2
Bickley 04/05 11:50 16.8 62 8.86 9.5 17 22 1013.1 0 20.0 25.4 39.3 103.2 98.0 337.4
Boolgeeda 04/05 11:49 27.3 18 4.71 1.5 9 11 1016.5 0 10.9 17.5 21.7 56.2 43.2 146.1
Bridgetown 04/05 11:50 13.7 84 9.95 11 4 6 1029 0 22.5 28.8 46.2 121.2 118.3 408.0
Brookton 04/05 09:00 13.4 78 9.07 9.7 19 1013.1 0.1 20.6 26.8 41.9 110.1 105.2 362.2
Broome 04/05 11:50 31.7 20 6.65 6 20 24 1014.4 0 14.8 18.9 26.1 68.0 59.1 202.7
Bunbury 04/05 11:50 17.8 71 10.78 12.6 7 11 1028.6 0 24.0 28.8 47.2 124.1 123.3 426.0
Busselton Airport 04/05 11:50 18.1 70 10.81 12.5 9 11 1028.4 0 24.0 28.8 47.1 123.9 123.2 425.7
Cape Leeuwin 04/05 11:50 17.8 68 10.32 11.8 15 19 1028.6 0 23.0 28.1 45.3 119.0 117.1 404.2
Cape Naturaliste 04/05 11:50 17.1 77 11.21 13 19 20 1028.2 0 25.0 29.8 49.4 130.0 130.3 450.5
Carnarvon 04/05 11:50 31.1 16 5.15 2.3 19 24 1017.8 0 11.7 17.4 22.0 57.1 45.4 154.3
Christmas Creek 04/05 11:50 23.8 19 4.09 -0.7 17 19 1019.7 0 9.8 17.5 20.8 53.8 39.0 131.0
Christmas Island 04/05 11:50 27.8 83 22.33 24.6 20 24 1011.9 0 47.7 45.0 90.1 238.5 267.8 930.6
Cocos Island 04/05 11:50 28.9 87 24.86 26.5 20 26 1012 0 52.9 49.5 101.4 268.7 305.0 1060.0
Collie East 04/05 11:50 13.6 80 9.42 10.2 7 7 1013.1 0 21.4 27.3 43.2 113.6 109.7 377.9
Coondewanna 04/05 11:50 22.6 22 4.42 -0.2 15 17 1013.1 0 10.5 17.9 21.9 56.8 42.6 143.6
Cunderdin Airport 04/05 11:50 16.7 64 9.09 9.9 19 24 1027.7 0 20.5 26.4 40.9 107.3 102.3 352.3
Curtin 04/05 11:50 32.8 23 8.1 8.9 22 28 1012.7 0 17.7 20.4 30.0 78.5 72.5 249.9
Dalwallinu 04/05 11:50 19.5 44 7.38 6.9 22 26 1025.9 0 16.7 22.9 33.1 86.5 77.8 266.7
Donnybrook 04/05 09:00 12.5 94 10.34 11.6 20 1013.1 0.4 23.4 29.2 47.8 125.8 124.2 428.6
Doongan 04/05 09:00 29.7 57 17.01 20.3 4 1013.4 0 36.3 34.4 64.0 169.2 183.2 636.5
Dwellingup 04/05 11:50 17.3 63 9.28 10.2 7 15 1028 0 20.8 26.5 41.4 108.5 104.0 358.4
Eliwana Airport 04/05 11:50 28.5 17 4.75 1 6 9 1013.1 0 11.0 17.2 21.4 55.5 42.8 144.9
Esperance 04/05 11:50 17.6 64 9.6 10.7 9 11 1027.4 0 21.5 26.9 42.5 111.4 107.7 371.5
Esperance Airport 04/05 11:50 16.8 66 9.44 10.4 9 11 1027.5 0 21.2 26.9 42.3 110.9 106.7 367.9
Eucla 04/05 11:50 18.5 63 9.97 11.3 17 20 1023.4 0.2 22.2 27.1 43.3 113.7 111.0 382.9
Eyre 04/05 09:00 17.7 69 10.41 12 15 1025.8 1 23.2 28.1 45.6 119.8 118.2 408.1
Fitzroy Crossing 04/05 11:50 33.5 24 8.78 10.2 1012.9 0 19.1 21.1 31.8 83.5 78.8 272.0
Forrest 04/05 11:50 17 65 9.4 10.4 19 22 1024 0 21.1 26.6 41.8 109.8 105.6 364.1
Fortescue Dave Forrest 04/05 11:49 23.9 21 4.54 0.3 24 33 1019.1 0 10.7 18.0 22.1 57.3 43.4 146.4
Garden Island 04/05 11:50 19.6 58 9.79 11.1 9 11 1027.7 0 21.8 26.6 42.2 110.7 107.5 370.8
Geraldton Airport 04/05 11:50 24.3 26 5.75 3.6 30 33 1022.8 0 13.2 19.5 25.9 67.2 55.6 189.5
Gerangamete (Cfa) 04/05 13:40 16.1 66 9.05 9.9 30 37 1013.1 0 20.4 25.9 40.4 106.1 101.3 349.1
Giles* 04/05 13:20 19.5 24 4.03 -1.6 15 17 1020.6 0 9.7 18.2 21.8 56.2 40.5 135.8
Gingin Airport 04/05 11:50 20.5 47 8.36 8.8 20 24 1026.9 0 18.8 24.2 36.3 95.0 88.5 304.4
Golden Grove 04/05 11:50 19.5 39 6.54 5.2 28 30 1013.1 0 15.0 21.3 29.7 77.6 67.2 230.0
Gooseberry Hill 04/05 11:50 19.8 55 9.39 10.7 11 20 1013.1 0 21.0 25.4 39.9 104.8 100.9 348.0
Gudai-Darri Mine 04/05 11:50 23.8 21 4.52 0.2 15 19 1013.1 0 10.6 17.8 21.9 56.8 43.0 145.1
Halls Creek 04/05 13:20 32.2 32 10.92 13.4 13 15 1012.8 0 23.5 24.3 39.3 103.5 103.1 357.0
Hopetoun North 04/05 11:50 16.9 68 9.78 11.1 7 11 1027.6 0 21.9 27.4 43.6 114.4 111.1 383.2
Hyden 04/05 09:00 12.6 89 9.85 10.9 4 1013.1 0.3 22.3 28.3 45.6 120.0 117.1 403.7
Iron Bridge Mine 04/05 11:50 28.6 15 4.22 -0.4 22 26 1013.1 0 9.9 16.6 19.9 51.4 37.8 127.4
Jacup 04/05 11:50 15.2 69 8.96 9.6 11 13 1028 0 20.3 26.6 41.2 108.0 102.6 353.1
Jandakot 04/05 11:50 19.6 53 8.95 9.8 13 15 1027.4 0 20.0 25.3 38.9 102.0 96.8 333.5
Jurien Bay 04/05 09:00 17.5 68 10.14 11.6 28 1025.3 0 22.7 27.7 44.6 117.2 114.8 396.3
Kalbarri 04/05 09:00 19.8 35 5.98 4 28 1022.2 0 13.8 20.8 28.0 72.9 61.2 208.8
Kalgoorlie-Boulder 04/05 11:50 14.9 70 8.92 9.5 13 15 1026.9 0 20.2 26.6 41.1 107.8 102.3 352.3
Kalumburu 04/05 13:20 34.7 44 17.13 21 9 9 1010.6 0 36.1 32.6 60.4 159.7 172.9 601.4
Karijini North 04/05 11:50 26.8 18 4.58 0.5 20 24 1018.6 0 10.7 17.5 21.5 55.6 42.3 142.8
Karratha 04/05 11:50 30.5 16 4.99 1.9 35 39 1016.5 0 11.4 17.2 21.7 56.2 44.2 149.9
Katanning Rs 04/05 11:50 14.1 80 9.71 10.7 9 11 1028.7 0 21.9 28.2 44.9 117.9 114.3 394.1
Koolan Island / Koolan Central 04/05 11:49 31.2 37 11.97 15 15 19 1013.1 0 25.7 26.0 43.5 114.6 116.4 403.6
Kununurra Airport 04/05 13:20 35 42 16.61 20.2 11 15 1011 0 35.0 31.7 58.2 153.8 165.7 576.3
Lake Grace 04/05 11:50 15 71 9.1 9.8 11 13 1028.4 0 20.6 26.9 41.9 109.8 104.7 360.7
Lancelin (Defence) 04/05 11:50 21.6 44 8.34 9.1 17 24 1025.7 0 18.7 23.8 35.7 93.4 86.9 299.2
Laverton 04/05 11:50 18 56 8.6 9.1 17 19 1025.5 0 19.4 25.2 38.3 100.3 94.2 324.2
Learmonth 04/05 11:50 29.6 33 9.79 11.6 24 30 1017.5 0 21.3 23.5 36.9 96.9 94.0 325.0
Legendre Island 04/05 11:50 28.1 35 9.57 11.2 37 41 1016.6 0 20.9 23.6 36.8 96.5 93.2 322.0
Leinster 04/05 11:50 18.4 41 6.45 4.9 17 20 1024.2 0 14.8 21.8 30.2 78.7 67.8 231.6
Leonora Airport 04/05 11:50 19.1 45 7.38 6.9 13 15 1025.4 0 16.8 23.0 33.3 86.9 78.1 267.9
Lombadina 04/05 11:50 30.2 34 10.42 13 22 30 1013.1 0 22.6 24.1 38.6 101.5 100.0 346.1
Mandora 04/05 11:50 31.2 15 4.85 1.5 19 20 1015.9 0 11.1 16.9 21.1 54.7 42.5 144.1
Mandurah 04/05 11:50 20.3 52 9.14 10.1 4 4 1027.6 0 20.4 25.4 39.3 103.1 98.3 338.9
Manjimup 04/05 11:50 13.1 91 10.38 11.7 6 7 1029 0 23.4 29.7 48.4 127.2 125.4 432.5
Marble Bar 04/05 11:50 28.5 14 3.91 -1.6 19 20 1018 0 9.3 16.4 19.2 49.5 35.2 118.0
Mardie 04/05 11:50 32.1 16 5.43 3.1 22 28 1016.2 0 12.3 17.5 22.5 58.4 47.4 161.4
Meekatharra 04/05 11:50 20.7 31 5.58 3 15 20 1022.9 0 12.9 20.1 26.4 68.7 56.3 191.4
Millendon (Swan Valley) 04/05 11:50 19.8 50 8.54 9.3 9 13 1027 0 19.2 24.6 37.3 97.6 91.5 314.8
Morawa Airport 04/05 11:50 20.9 36 6.56 5.6 26 30 1024.7 0 15.0 21.4 29.7 77.4 67.0 229.1
Mount Keith 04/05 11:50 18.6 38 6.05 4 15 17 1013.1 0 14.0 20.8 28.3 73.9 62.4 213.0
Mount Magnet Airport 04/05 11:50 19.4 37 6.17 4.3 20 26 1024.3 0 14.2 21.2 28.9 75.2 63.8 217.7
Munglinup West 04/05 11:50 15.6 71 9.44 10.5 0 2 1027.8 0.2 21.3 27.3 42.9 112.6 108.4 373.6
Narrogin 04/05 09:00 11 93 9.31 10 4 1013.1 0 21.3 27.9 44.2 116.3 111.9 385.3
Newdegate 04/05 11:50 16.3 60 8.32 8.7 7 13 1027.8 0 18.9 25.3 38.1 99.8 92.9 319.3
Newman Airport 04/05 11:50 22 24 4.66 0.5 13 17 1020.4 0 11.0 18.5 23.0 59.7 45.7 154.2
Norseman Airport 04/05 11:50 15.8 66 8.88 9.5 2 9 1027.1 0 20.1 26.3 40.5 106.2 100.7 346.5
North Island 04/05 11:50 23.7 40 8.56 9.3 24 30 1022.4 0 19.0 23.5 35.4 92.8 87.0 299.7
Onslow Airport 04/05 11:50 30.6 25 7.83 8.3 20 24 1017.4 0 17.2 20.7 30.1 78.8 72.0 247.8
Paraburdoo 04/05 11:50 26.4 18 4.48 0.2 17 19 1018.2 0 10.5 17.4 21.3 55.1 41.5 140.0
Paynes Find 04/05 09:00 14.5 62 7.71 7.3 6 1026.7 0 17.6 24.8 36.5 95.6 87.1 298.7
Pearce 04/05 11:50 20 49 8.47 9 9 11 1026.8 0 19.0 24.5 36.9 96.7 90.4 311.0
Perth 04/05 11:50 19.9 52 8.93 9.8 9 11 1027.3 0 20.0 25.2 38.7 101.4 96.2 331.4
Perth Airport 04/05 11:50 20.3 50 8.79 9.5 15 17 1027.2 0 19.7 24.9 38.0 99.5 94.0 323.6
Port Hedland 04/05 11:50 30.8 14 4.43 0.2 24 30 1016.5 0 10.3 16.6 20.1 51.9 38.9 131.3
Portable Btsa (Dfes) 04/05 11:40 27.1 20 5.18 2.3 20 24 1013.1 0 11.9 18.0 23.0 59.8 47.7 162.0
Portable Btsb (Dfes) 04/05 11:40 16.3 65 9.02 9.8 13 19 1013.1 0 20.4 25.8 40.2 105.6 100.7 346.8
Portable Btsd (Dfes) 04/05 11:40 16 62 8.45 8.8 13 17 1013.1 0 19.2 25.0 38.1 100.0 93.7 322.4
Portable Btsf (Dfes) 04/05 09:00 16 46 6.27 4.5 30 33 1013.1 0 14.5 21.8 30.0 78.4 67.1 228.9
Portable Btsh (Dfes) 04/05 11:40 16.7 81 11.51 13.4 13 15 1013.1 0.2 25.7 29.8 50.2 132.2 133.7 462.2
Portable Btsj (Dfes) 04/05 11:40 20.2 51 8.92 9.8 7 13 1013.1 0 20.0 24.6 37.9 99.5 94.6 325.9
Portable Btsk (Dfes) 04/05 11:40 31.6 17 5.62 4 13 19 1013.1 0 12.7 17.7 23.1 60.0 49.3 168.1
Portable Btsl (Dfes) 04/05 11:40 17 62 8.97 9.7 19 28 1013.1 0 20.2 25.6 39.7 104.1 99.1 341.5
Portable Btsm (Dfes) 04/05 11:40 21.7 25 4.77 1.2 7 9 1013.1 0 11.2 18.5 23.2 60.3 46.6 157.7
Portable Btsn (Dfes) 04/05 11:40 18.2 40 6.22 4.6 13 17 1013.1 0 14.4 21.2 29.1 75.8 64.7 220.8
Portable Btso (Dfes) 04/05 11:40 13.1 81 9.24 9.9 6 7 1013.1 0 21.0 27.2 42.8 112.4 107.9 371.7
Ravensthorpe 04/05 09:00 13.5 89 10.41 11.8 2 1028.6 0.6 23.5 29.6 48.3 126.8 125.1 431.7
Red Rocks Point 04/05 11:50 16.1 84 11.51 13.4 15 15 1024.3 0 25.7 30.5 51.2 134.6 135.9 469.8
Rocky Gully South 04/05 11:50 14.5 78 9.7 10.7 7 7 1013.1 0 21.9 27.5 43.9 115.4 112.2 386.8
Roebourne Airport 04/05 11:50 30.7 16 5.04 2 24 32 1017 0 11.5 17.3 21.8 56.5 44.5 151.2
Rottnest Island 04/05 11:50 18.7 61 9.77 11 13 17 1027.1 0 21.8 26.8 42.5 111.7 108.4 374.0
Salmon Gums Rs 04/05 11:50 15.6 76 10.11 11.5 7 7 1013.1 0 22.7 27.8 45.0 118.3 116.1 400.8
Shannon 04/05 11:50 14.2 87 10.62 12.1 11 11 1013.1 0 23.9 29.1 48.0 126.2 125.4 433.0
Shark Bay Airport 04/05 11:50 26 22 5.36 2.7 33 39 1019 0 12.3 18.6 24.0 62.4 50.4 171.2
Solomon Airport 04/05 11:50 26.4 18 4.48 0.6 15 17 1017.2 0 10.5 17.4 21.3 55.0 41.4 139.9
Southern Cross Airport 04/05 11:50 16.6 62 8.76 9.3 11 13 1027.4 0 19.8 25.9 39.7 103.9 98.1 337.7
Swanbourne 04/05 11:50 21.1 67 12.34 14.9 11 15 1013.1 0 27.1 29.7 50.8 134.0 137.3 475.6
Telfer 04/05 11:50 24.9 19 4.35 -0.3 30 35 1018.6 0 10.3 17.6 21.3 55.1 41.0 138.1
Thevenard Island 04/05 11:30 28.4 35 9.73 11.5 24 33 1017.6 0 21.2 23.8 37.2 97.8 94.7 327.4
Troughton Island 04/05 13:20 31.8 69 23.05 25.4 20 20 1011.4 0 48.7 44.2 88.8 235.1 264.7 920.4
Truscott 04/05 13:20 32.5 54 18.73 22 15 19 1010.5 0 39.6 36.1 68.7 181.8 199.4 693.6
Wagin 04/05 09:00 11.5 100 10.33 11.5 1013.1 0 23.4 29.5 48.4 127.3 125.7 433.7
Walpole North 04/05 11:50 16.9 73 10.5 12 9 9 1028.2 0 23.5 28.6 46.6 122.3 120.9 417.4
Wandering 04/05 11:50 14.9 74 9.43 10.3 15 19 1013.1 0 21.3 26.9 42.6 111.9 108.0 372.1
West Angelas 04/05 11:50 23.7 22 4.71 1 15 19 1018.9 0 11.0 18.2 22.7 58.8 45.2 152.7
West Musgrave Airport 04/05 11:50 19.2 31 5.11 1.7 28 35 1013.1 0 12.0 19.4 25.0 65.0 51.7 175.3
Wiluna Airport 04/05 11:50 19.1 34 5.57 2.9 20 24 1023.8 0 13.0 20.4 26.9 70.0 57.3 194.8
Windy Harbour 04/05 09:00 12.8 97 10.87 12.4 6 1019 3 24.5 30.3 50.2 132.2 132.0 455.6
Witchcliffe West 04/05 11:50 17.3 83 12.23 14.4 9 11 1028.6 0 27.1 31.5 53.7 141.4 144.5 499.8
Wongan Hills 04/05 09:00 13 88 9.98 11.1 22 1027.3 0 22.6 29.0 46.6 122.5 119.7 412.6
Wyndham Airport 04/05 13:20 35.9 40 16.58 20.2 9 13 1010.6 0 34.9 31.3 57.4 151.7 163.4 568.4
Yampi Sound (Defence) 04/05 11:50 34.2 27 10.24 13 15 22 1016 0 22.0 22.9 36.3 95.4 93.5 323.7
York 04/05 09:00 11.5 94 9.71 10.5 0 1029 0 22.1 29.1 46.4 121.9 118.3 407.6

Last Refresh: 04-May-2026 13:31:05

Bureau of Meteorology